Time;durP1;ratioP1;P1;durP2;ratioP2;P2;SDS_P1;SDS_P2;PMS_P1;PMS_P2;Temp;Humidity;BMP_temperature;BMP_pressure;BME280_temperature;BME280_humidity;BME280_pressure;Samples;Min_cycle;Max_cycle;Signal;HPM_P1;HPM_P2
2022/09/07 00:00:07;;;;;;;7.33;4.90;;;;;;;22.04;54.85;97750.56;8314551;28;20237;-76
2022/09/07 00:04:10;;;;;;;10.47;4.63;;;;;;;22.09;54.29;97752.78;8314424;28;20233;-77
2022/09/07 00:08:16;;;;;;;7.77;4.67;;;;;;;22.10;54.19;97756.22;8314663;28;20228;-77
2022/09/07 00:12:18;;;;;;;7.83;4.97;;;;;;;22.15;54.76;97754.81;8314175;28;20236;-77
2022/09/07 00:16:23;;;;;;;6.50;4.50;;;;;;;22.09;54.71;97768.59;8314240;28;20232;-77
2022/09/07 00:20:26;;;;;;;7.13;4.70;;;;;;;22.14;54.52;97768.13;8314124;28;20235;-77
2022/09/07 00:24:30;;;;;;;10.90;4.83;;;;;;;22.03;54.59;97767.38;8314014;28;20240;-77
2022/09/07 00:28:34;;;;;;;7.07;5.07;;;;;;;21.94;55.08;97760.31;8313861;28;20230;-77
2022/09/07 00:32:37;;;;;;;8.00;4.87;;;;;;;21.90;55.31;97766.84;8313962;28;20258;-76
2022/09/07 00:36:40;;;;;;;7.77;4.90;;;;;;;21.98;54.98;97777.50;8313851;28;20259;-76
2022/09/07 00:40:44;;;;;;;8.93;4.30;;;;;;;21.95;55.26;97777.81;8313816;28;20251;-77
2022/09/07 00:45:09;;;;;;;9.50;4.50;;;;;;;21.87;55.07;97772.41;8313849;28;20239;-77
2022/09/07 00:49:14;;;;;;;11.63;4.37;;;;;;;21.73;55.83;97772.88;8313713;28;20410;-77
2022/09/07 00:53:23;;;;;;;7.73;4.47;;;;;;;21.76;55.80;97775.22;8313770;28;20237;-77
2022/09/07 00:57:28;;;;;;;9.10;4.90;;;;;;;21.79;55.79;97773.13;8318023;28;20438;-77
2022/09/07 01:01:32;;;;;;;6.03;4.67;;;;;;;21.69;56.23;97758.34;8319768;28;20233;-77
2022/09/07 01:05:39;;;;;;;6.87;4.53;;;;;;;21.64;55.81;97761.38;8319393;28;20348;-77
2022/09/07 01:09:42;;;;;;;9.67;5.37;;;;;;;21.66;56.21;97756.81;8319784;28;20236;-77
2022/09/07 01:13:47;;;;;;;8.57;5.50;;;;;;;21.68;55.89;97768.03;8319384;28;20233;-77
2022/09/07 01:17:56;;;;;;;11.57;5.33;;;;;;;21.72;55.79;97771.22;8318859;28;20228;-77
2022/09/07 01:22:08;;;;;;;10.27;5.10;;;;;;;21.76;55.48;97768.16;8319207;28;20224;-77
2022/09/07 01:26:42;;;;;;;11.23;5.90;;;;;;;21.64;55.84;97771.94;8318875;28;20236;-77
2022/09/07 01:30:53;;;;;;;9.87;5.27;;;;;;;21.63;56.18;97762.38;8298712;28;20232;-76
2022/09/07 01:34:56;;;;;;;9.60;5.50;;;;;;;21.53;56.12;97757.09;8318392;28;20229;-77
2022/09/07 01:39:01;;;;;;;12.13;6.30;;;;;;;21.53;56.14;97758.91;8318823;28;20228;-77
2022/09/07 01:43:07;;;;;;;7.43;5.17;;;;;;;21.54;56.29;97753.50;8318315;28;20232;-77
2022/09/07 01:47:15;;;;;;;8.83;5.40;;;;;;;21.55;56.19;97755.19;8318362;28;20228;-77
2022/09/07 01:51:19;;;;;;;11.40;5.60;;;;;;;21.50;56.54;97746.03;8318068;28;20234;-77
2022/09/07 01:55:24;;;;;;;10.40;5.77;;;;;;;21.41;56.70;97739.78;8318309;28;20233;-77
2022/09/07 01:59:30;;;;;;;10.67;5.63;;;;;;;21.43;56.47;97749.19;8318206;28;20232;-77
2022/09/07 02:03:39;;;;;;;8.97;5.40;;;;;;;21.46;56.67;97740.22;8317610;28;20239;-77
2022/09/07 02:07:45;;;;;;;11.77;5.63;;;;;;;21.46;56.36;97743.69;8317163;28;20227;-76
2022/09/07 02:11:49;;;;;;;10.47;5.80;;;;;;;21.42;56.83;97742.28;8317236;28;20511;-76
2022/09/07 02:15:55;;;;;;;9.27;6.20;;;;;;;21.23;57.54;97750.22;8317424;28;20404;-76
2022/09/07 02:20:04;;;;;;;9.43;5.57;;;;;;;21.33;57.24;97747.56;8317513;28;20278;-77
2022/09/07 02:24:12;;;;;;;9.67;6.13;;;;;;;21.25;57.00;97749.09;8329841;28;20427;-76
2022/09/07 02:28:16;;;;;;;9.87;6.00;;;;;;;21.25;57.35;97751.72;8317422;28;20512;-77
2022/09/07 02:32:19;;;;;;;12.57;6.37;;;;;;;21.28;57.40;97759.34;8317207;28;20225;-77
2022/09/07 02:36:26;;;;;;;10.63;6.00;;;;;;;21.33;56.96;97761.56;8316790;28;20236;-76
2022/09/07 02:40:29;;;;;;;9.80;6.30;;;;;;;21.31;57.20;97768.78;8316690;28;20220;-77
2022/09/07 02:44:35;;;;;;;9.27;5.40;;;;;;;21.39;56.89;97775.97;8316614;28;20527;-77
2022/09/07 02:48:43;;;;;;;11.63;6.33;;;;;;;21.27;57.52;97778.75;8316735;28;20243;-77
2022/09/07 02:52:55;;;;;;;10.80;5.73;;;;;;;21.24;56.84;97765.84;8316844;28;20505;-78
2022/09/07 02:57:05;;;;;;;12.23;6.07;;;;;;;21.12;56.99;97755.63;8316026;28;20434;-78
2022/09/07 03:01:10;;;;;;;8.87;6.17;;;;;;;21.27;57.16;97767.41;8316560;28;20428;-77
2022/09/07 03:05:19;;;;;;;9.50;6.40;;;;;;;21.15;57.40;97757.97;8316347;28;20232;-77
2022/09/07 03:09:27;;;;;;;9.83;6.20;;;;;;;21.16;57.35;97749.94;8316431;28;20232;-78
2022/09/07 03:13:31;;;;;;;11.40;6.30;;;;;;;21.26;57.22;97758.63;8316095;28;20224;-77
2022/09/07 03:17:34;;;;;;;8.67;5.97;;;;;;;21.19;57.54;97741.75;8316027;28;20236;-77
2022/09/07 03:21:37;;;;;;;11.07;6.60;;;;;;;20.97;58.39;97727.09;8314849;28;20228;-77
2022/09/07 03:25:41;;;;;;;12.03;8.23;;;;;;;20.99;58.61;97724.31;8315592;28;20232;-76
2022/09/07 03:29:44;;;;;;;13.47;8.13;;;;;;;21.11;58.24;97730.25;8315534;28;20232;-76
2022/09/07 03:33:47;;;;;;;10.57;7.20;;;;;;;20.82;59.23;97739.00;8315523;28;20228;-77
2022/09/07 03:37:50;;;;;;;13.13;6.80;;;;;;;21.13;58.64;97742.31;8315304;28;20244;-76
2022/09/07 03:41:54;;;;;;;9.87;6.60;;;;;;;21.21;58.13;97746.88;8315353;28;20308;-76
2022/09/07 03:45:58;;;;;;;12.73;7.17;;;;;;;20.99;58.83;97746.19;8315172;28;20231;-77
2022/09/07 03:50:00;;;;;;;15.20;6.20;;;;;;;21.01;58.78;97740.78;8315202;28;20294;-77
2022/09/07 03:54:03;;;;;;;8.70;6.43;;;;;;;20.97;59.12;97728.88;8314663;28;20240;-77
2022/09/07 03:58:07;;;;;;;10.83;6.30;;;;;;;20.96;58.88;97735.09;8315010;28;20233;-77
2022/09/07 04:02:11;;;;;;;9.60;6.60;;;;;;;20.92;59.24;97736.38;8315027;28;20238;-76
2022/09/07 04:06:14;;;;;;;10.83;6.73;;;;;;;20.98;58.77;97733.16;8314720;28;20409;-76
2022/09/07 04:10:17;;;;;;;12.13;6.47;;;;;;;20.97;58.71;97734.97;8314636;28;20232;-77
2022/09/07 04:14:21;;;;;;;9.03;5.90;;;;;;;21.00;58.72;97739.97;8314820;28;20228;-77
2022/09/07 04:18:25;;;;;;;10.57;6.40;;;;;;;21.09;58.22;97751.44;8314705;28;20233;-77
2022/09/07 04:22:27;;;;;;;11.03;5.90;;;;;;;21.09;58.19;97760.22;8314602;28;20498;-77
2022/09/07 04:26:32;;;;;;;6.73;6.00;;;;;;;21.00;57.97;97768.94;8314222;28;20232;-77
2022/09/07 04:30:36;;;;;;;9.83;6.40;;;;;;;21.06;57.48;97771.00;8316001;28;20427;-77
2022/09/07 04:34:39;;;;;;;10.70;6.53;;;;;;;21.06;58.15;97775.44;8320958;28;20236;-76
2022/09/07 04:38:42;;;;;;;13.60;6.50;;;;;;;20.98;58.26;97781.41;8320998;28;20224;-76
2022/09/07 04:42:45;;;;;;;10.43;5.93;;;;;;;20.96;58.28;97774.59;8320731;28;20228;-76
2022/09/07 04:46:49;;;;;;;9.50;6.33;;;;;;;20.86;58.82;97777.22;8320520;28;20236;-76
2022/09/07 04:50:52;;;;;;;10.07;6.47;;;;;;;20.90;58.84;97778.59;8320506;28;20534;-76
2022/09/07 04:54:55;;;;;;;9.83;6.33;;;;;;;20.81;58.65;97771.53;8320534;28;20240;-76
2022/09/07 04:58:58;;;;;;;12.03;6.70;;;;;;;20.86;58.41;97774.59;8320339;28;20249;-77
2022/09/07 05:03:03;;;;;;;16.37;6.47;;;;;;;20.97;58.60;97789.44;8319851;28;20243;-76
2022/09/07 05:07:06;;;;;;;11.37;6.40;;;;;;;20.97;58.56;97782.34;8319895;28;20237;-77
2022/09/07 05:11:10;;;;;;;12.70;6.67;;;;;;;20.87;58.82;97774.47;8319776;28;20511;-77
2022/09/07 05:15:13;;;;;;;9.53;5.93;;;;;;;21.02;58.42;97768.81;8319561;28;20267;-77
2022/09/07 05:19:17;;;;;;;10.17;6.07;;;;;;;20.94;58.87;97763.38;8319575;28;20233;-76
2022/09/07 05:23:22;;;;;;;9.37;6.60;;;;;;;21.04;59.31;97780.84;8319923;28;20228;-76
2022/09/07 05:27:25;;;;;;;15.87;6.60;;;;;;;21.13;58.99;97767.81;8319829;28;20229;-77
2022/09/07 05:31:28;;;;;;;9.07;5.97;;;;;;;21.09;59.23;97752.31;8319381;28;20228;-77
2022/09/07 05:35:33;;;;;;;12.13;6.80;;;;;;;21.06;59.40;97760.47;8319483;28;20229;-77
2022/09/07 05:39:36;;;;;;;9.73;6.67;;;;;;;21.14;59.24;97758.94;8318826;28;20232;-77
2022/09/07 05:43:39;;;;;;;10.80;7.43;;;;;;;20.82;60.57;97755.59;8317511;28;20225;-76
2022/09/07 05:48:02;;;;;;;14.30;6.90;;;;;;;21.22;59.23;97743.28;8318275;28;20237;-77
2022/09/07 05:52:06;;;;;;;14.00;7.13;;;;;;;21.17;59.59;97756.03;8318491;28;20231;-77
2022/09/07 05:56:09;;;;;;;12.60;8.23;;;;;;;20.56;61.41;97760.56;8318123;28;20374;-76
2022/09/07 06:00:14;;;;;;;12.83;7.50;;;;;;;20.62;61.84;97756.56;8318338;28;20228;-76
2022/09/07 06:04:17;;;;;;;11.37;7.60;;;;;;;20.72;61.82;97761.84;8317791;28;20229;-77
2022/09/07 06:08:21;;;;;;;14.63;7.77;;;;;;;20.52;62.90;97751.25;8317926;28;20267;-76
2022/09/07 06:12:24;;;;;;;15.20;7.20;;;;;;;21.02;61.24;97753.81;8317544;28;20239;-76
2022/09/07 06:16:26;;;;;;;13.60;7.77;;;;;;;20.90;62.15;97757.56;8317503;28;20233;-76
2022/09/07 06:20:29;;;;;;;15.67;8.80;;;;;;;20.34;64.71;97766.03;8317508;28;20239;-76
2022/09/07 06:24:34;;;;;;;14.17;7.70;;;;;;;20.82;63.06;97768.78;8317473;28;20235;-76
2022/09/07 06:28:38;;;;;;;15.23;7.83;;;;;;;21.24;61.31;97762.41;8317319;28;20328;-76
2022/09/07 06:32:41;;;;;;;14.00;8.13;;;;;;;21.04;62.86;97772.94;8317308;28;20242;-76
2022/09/07 06:36:49;;;;;;;16.80;7.57;;;;;;;21.26;61.96;97769.16;8316509;28;20546;-75
2022/09/07 06:40:53;;;;;;;10.60;7.10;;;;;;;21.47;61.19;97769.03;8316850;28;20228;-75
2022/09/07 06:45:16;;;;;;;14.60;8.33;;;;;;;20.96;63.73;97758.81;8316882;28;20255;-76
2022/09/07 06:49:19;;;;;;;15.87;8.50;;;;;;;20.99;63.62;97750.63;8316964;28;20227;-76
2022/09/07 06:53:22;;;;;;;13.83;8.70;;;;;;;20.55;65.73;97758.88;8316247;28;20235;-77
2022/09/07 06:57:46;;;;;;;11.60;7.30;;;;;;;21.38;62.77;97763.75;8316327;28;20553;-76
2022/09/07 07:01:49;;;;;;;16.80;7.80;;;;;;;21.42;62.99;97773.06;8315821;28;20225;-76
2022/09/07 07:05:53;;;;;;;10.97;7.30;;;;;;;21.60;61.57;97765.28;8316075;28;20409;-79
2022/09/07 07:09:56;;;;;;;11.67;6.77;;;;;;;21.99;59.85;97763.38;8315991;28;20217;-79
2022/09/07 07:14:00;;;;;;;14.20;7.47;;;;;;;21.64;62.13;97766.66;8315758;28;20424;-80
2022/09/07 07:18:03;;;;;;;16.50;8.20;;;;;;;21.53;63.09;97770.28;8315773;28;20630;-80
2022/09/07 07:22:22;;;;;;;12.53;6.90;;;;;;;21.96;61.27;97768.91;8315868;28;20233;-79
2022/09/07 07:26:47;;;;;;;15.67;7.73;;;;;;;22.17;60.62;97760.78;8315365;28;20235;-80
2022/09/07 07:30:56;;;;;;;15.60;6.10;;;;;;;22.25;59.87;97775.91;8314956;28;20224;-80
2022/09/07 07:34:58;;;;;;;11.57;6.70;;;;;;;22.77;58.61;97777.94;8315439;28;20236;-80
2022/09/07 07:39:01;;;;;;;11.87;6.23;;;;;;;23.34;57.41;97780.31;8315149;28;20224;-77
2022/09/07 07:43:05;;;;;;;15.80;6.93;;;;;;;23.88;56.23;97794.25;8315178;28;20237;-77
2022/09/07 07:47:11;;;;;;;10.80;6.00;;;;;;;24.08;54.88;97786.91;8315229;28;20339;-79
2022/09/07 07:51:14;;;;;;;11.30;5.57;;;;;;;24.21;54.42;97797.06;8314962;28;20225;-77
2022/09/07 07:55:17;;;;;;;11.57;5.30;;;;;;;24.50;53.42;97802.00;8314811;28;20233;-76
2022/09/07 07:59:40;;;;;;;10.23;4.70;;;;;;;24.82;53.37;97795.16;8314617;28;20283;-77
2022/09/07 08:03:46;;;;;;;23.57;5.40;;;;;;;25.11;52.14;97815.06;8314310;28;20233;-77
2022/09/07 08:07:48;;;;;;;12.60;5.37;;;;;;;25.13;51.64;97813.91;8313269;28;20526;-75
2022/09/07 08:11:51;;;;;;;13.13;5.07;;;;;;;25.27;52.42;97820.41;8314258;28;20229;-76
2022/09/07 08:15:58;;;;;;;11.47;4.77;;;;;;;25.20;51.67;97818.56;8314215;28;20235;-77
2022/09/07 08:20:02;;;;;;;9.53;4.23;;;;;;;25.30;50.77;97814.78;8314612;28;20236;-77
2022/09/07 08:24:05;;;;;;;9.53;3.83;;;;;;;25.81;49.94;97817.22;8314240;28;20285;-76
2022/09/07 08:28:08;;;;;;;11.77;4.10;;;;;;;26.13;48.11;97829.63;8314290;28;20516;-76
2022/09/07 08:32:11;;;;;;;8.17;3.00;;;;;;;26.17;45.75;97826.63;8314262;28;20251;-77
2022/09/07 08:36:16;;;;;;;9.23;3.50;;;;;;;26.48;46.96;97831.97;8314087;28;20230;-76
2022/09/07 08:40:20;;;;;;;10.90;3.60;;;;;;;26.39;46.48;97836.50;8314251;28;20437;-76
2022/09/07 08:44:25;;;;;;;7.87;3.23;;;;;;;26.74;45.34;97828.25;8314117;28;20230;-77
2022/09/07 08:48:31;;;;;;;7.37;3.10;;;;;;;27.18;44.51;97819.69;8314307;28;20233;-77
2022/09/07 08:52:42;;;;;;;7.53;3.00;;;;;;;27.21;44.14;97820.16;8314078;28;20246;-77
2022/09/07 08:56:47;;;;;;;7.30;2.80;;;;;;;27.18;44.57;97825.00;8313858;28;20239;-77
2022/09/07 09:01:12;;;;;;;8.03;2.77;;;;;;;27.95;42.89;97827.56;8313341;28;20374;-77
2022/09/07 09:05:42;;;;;;;8.10;2.60;;;;;;;28.35;41.83;97824.59;8313303;28;20306;-77
2022/09/07 09:10:00;;;;;;;11.80;3.03;;;;;;;28.07;40.84;97826.09;8313593;28;20234;-77
2022/09/07 09:14:06;;;;;;;6.03;2.60;;;;;;;28.58;41.13;97811.22;8313423;28;20232;-78
2022/09/07 09:18:19;;;;;;;6.70;2.47;;;;;;;28.72;40.67;97814.88;8317116;28;20244;-78
2022/09/07 09:22:25;;;;;;;10.60;2.53;;;;;;;29.20;39.51;97816.00;8319780;28;20256;-76
2022/09/07 09:26:31;;;;;;;11.00;2.90;;;;;;;29.39;39.25;97814.53;8319278;28;20260;-74
2022/09/07 09:30:34;;;;;;;9.27;2.53;;;;;;;29.37;38.96;97799.75;8318960;28;20236;-77
2022/09/07 09:34:36;;;;;;;9.03;2.37;;;;;;;29.67;39.26;97802.25;8319136;28;20490;-77
2022/09/07 09:38:42;;;;;;;8.87;2.37;;;;;;;29.60;38.51;97800.34;8319203;28;20461;-77
2022/09/07 09:42:47;;;;;;;6.97;2.30;;;;;;;29.46;39.30;97803.94;8318710;28;20259;-77
2022/09/07 09:46:53;;;;;;;5.70;2.13;;;;;;;30.10;37.12;97810.16;8317161;28;20229;-76
2022/09/07 09:51:16;;;;;;;7.47;2.30;;;;;;;29.05;38.81;97808.06;8318351;28;20286;-76
2022/09/07 09:55:40;;;;;;;7.40;2.40;;;;;;;28.11;41.17;97807.91;8318137;28;20325;-77
2022/09/07 09:59:48;;;;;;;7.30;2.10;;;;;;;27.84;41.26;97804.84;8318243;28;20424;-76
2022/09/07 10:04:18;;;;;;;7.93;2.50;;;;;;;27.83;41.82;97797.84;8317307;28;20262;-75
2022/09/07 10:08:27;;;;;;;7.20;2.23;;;;;;;27.94;40.95;97798.47;8317487;28;20233;-77
2022/09/07 10:12:32;;;;;;;5.33;2.27;;;;;;;29.61;38.33;97801.19;8317129;28;20229;-77
2022/09/07 10:16:39;;;;;;;7.40;2.70;;;;;;;29.90;37.50;97792.16;8317476;28;20248;-77
2022/09/07 10:20:42;;;;;;;8.63;2.53;;;;;;;29.82;38.62;97787.81;8317445;28;20236;-77
2022/09/07 10:24:44;;;;;;;6.43;2.17;;;;;;;29.92;37.87;97790.13;8317194;28;20222;-77
2022/09/07 10:28:47;;;;;;;11.10;2.37;;;;;;;29.77;36.91;97782.22;8316027;28;20234;-78
2022/09/07 10:33:14;;;;;;;9.63;2.43;;;;;;;30.62;35.86;97787.41;8316883;28;20336;-78
2022/09/07 10:37:25;;;;;;;7.87;2.40;;;;;;;29.58;37.19;97773.03;8316850;28;20503;-79
2022/09/07 10:41:37;;;;;;;9.93;2.30;;;;;;;29.14;38.40;97779.44;8316798;28;20229;-78
2022/09/07 10:45:47;;;;;;;8.23;2.20;;;;;;;29.36;37.66;97771.41;8316418;28;20232;-76
2022/09/07 10:49:56;;;;;;;8.40;2.23;;;;;;;30.17;37.10;97771.78;8316022;28;20413;-79
2022/09/07 10:54:23;;;;;;;11.20;2.23;;;;;;;30.43;36.11;97761.47;8316123;28;20252;-79
2022/09/07 10:58:43;;;;;;;9.10;2.40;;;;;;;30.38;36.23;97768.19;8316145;28;20232;-79
2022/09/07 11:03:16;;;;;;;7.60;2.33;;;;;;;30.16;36.75;97764.81;8315300;28;20349;-77
2022/09/07 11:07:50;;;;;;;7.23;2.10;;;;;;;30.82;36.07;97757.25;8315927;28;20232;-81
2022/09/07 11:11:58;;;;;;;8.27;2.43;;;;;;;30.13;37.10;97751.03;8315392;28;20236;-78
2022/09/07 11:16:07;;;;;;;10.13;2.20;;;;;;;29.58;38.06;97750.88;8315684;28;20236;-77
2022/09/07 11:20:16;;;;;;;10.47;2.23;;;;;;;29.71;37.70;97745.63;8315772;28;20518;-77
2022/09/07 11:24:25;;;;;;;7.57;1.90;;;;;;;30.77;36.15;97734.63;8315786;28;20240;-78
2022/09/07 11:28:32;;;;;;;6.60;2.00;;;;;;;31.41;35.85;97732.41;8315601;28;20246;-78
2022/09/07 11:32:36;;;;;;;8.03;2.10;;;;;;;30.07;37.65;97728.59;8315169;28;20226;-83
2022/09/07 11:36:45;;;;;;;9.33;2.40;;;;;;;29.39;38.82;97729.19;8315124;28;20236;-77
2022/09/07 11:40:58;;;;;;;9.37;2.20;;;;;;;29.20;39.46;97728.00;8313748;28;20247;-77
2022/09/07 11:45:03;;;;;;;8.60;2.73;;;;;;;30.14;37.91;97731.28;8315166;28;20289;-79
2022/09/07 11:49:11;;;;;;;11.57;2.17;;;;;;;30.66;37.29;97729.88;8314955;28;20230;-81
2022/09/07 11:53:17;;;;;;;6.17;2.33;;;;;;;30.83;35.76;97713.47;8314727;28;20229;-80
2022/09/07 11:57:35;;;;;;;9.83;2.20;;;;;;;31.19;35.27;97702.41;8314221;28;20279;-76
2022/09/07 12:01:45;;;;;;;7.93;2.43;;;;;;;30.92;34.95;97696.22;8314320;28;20234;-76
2022/09/07 12:05:59;;;;;;;8.57;2.63;;;;;;;31.00;34.38;97698.69;8313747;28;20528;-78
2022/09/07 12:10:24;;;;;;;7.77;2.20;;;;;;;31.26;34.35;97697.84;8314090;28;20560;-79
2022/09/07 12:14:34;;;;;;;7.87;2.33;;;;;;;31.54;33.47;97689.63;8314338;28;20232;-77
2022/09/07 12:18:59;;;;;;;9.20;2.57;;;;;;;31.72;34.14;97691.66;8314376;28;20360;-76
2022/09/07 12:23:03;;;;;;;10.07;2.20;;;;;;;30.97;34.88;97696.44;8313976;28;20296;-75
2022/09/07 12:27:10;;;;;;;6.50;2.43;;;;;;;30.59;36.20;97686.28;8313822;28;20310;-76
2022/09/07 12:31:42;;;;;;;10.83;2.50;;;;;;;29.95;37.72;97693.66;8313901;28;20278;-78
2022/09/07 12:36:00;;;;;;;8.53;2.67;;;;;;;29.59;38.24;97688.50;8313501;28;20284;-76
2022/09/07 12:40:40;;;;;;;7.00;2.17;;;;;;;30.31;36.82;97687.22;8313819;28;20596;-76
2022/09/07 12:44:43;;;;;;;9.33;2.33;;;;;;;30.92;35.18;97670.31;8313809;28;20234;-75
2022/09/07 12:48:53;;;;;;;10.27;2.03;;;;;;;31.15;35.58;97666.41;8313755;28;20308;-77
2022/09/07 12:53:22;;;;;;;9.57;2.00;;;;;;;31.21;34.84;97670.09;8316861;28;20517;-78
2022/09/07 12:57:32;;;;;;;11.97;2.73;;;;;;;31.31;33.79;97660.63;8317560;28;20501;-77
2022/09/07 13:01:42;;;;;;;6.23;2.30;;;;;;;31.56;33.79;97662.66;8319811;28;20240;-76
2022/09/07 13:05:56;;;;;;;10.87;2.23;;;;;;;31.66;33.11;97660.38;8319400;28;20237;-84
2022/09/07 13:10:02;;;;;;;11.20;2.60;;;;;;;31.47;33.28;97650.53;8318958;28;20249;-79
2022/09/07 13:14:06;;;;;;;7.23;2.10;;;;;;;30.99;33.41;97646.25;8319621;28;20244;-80
2022/09/07 13:18:42;;;;;;;8.13;2.50;;;;;;;31.54;32.83;97648.66;8319695;28;20239;-79
2022/09/07 13:23:08;;;;;;;10.00;2.07;;;;;;;31.74;32.69;97653.97;8319322;28;20249;-81
2022/09/07 13:27:33;;;;;;;5.43;1.80;;;;;;;31.79;31.60;97635.41;8319112;28;20272;-81
2022/09/07 13:31:47;;;;;;;8.90;2.10;;;;;;;31.87;31.63;97631.66;8319588;28;20235;-83
2022/09/07 13:35:52;;;;;;;7.73;2.20;;;;;;;31.98;31.83;97619.47;8319283;28;20226;-82
2022/09/07 13:39:57;;;;;;;10.30;1.90;;;;;;;32.13;31.45;97620.84;8319141;28;20562;-83
2022/09/07 13:44:01;;;;;;;9.23;2.27;;;;;;;31.55;32.19;97626.25;8319164;28;20236;-79
2022/09/07 13:48:11;;;;;;;6.80;1.90;;;;;;;30.58;33.37;97629.34;8318486;28;20246;-76
2022/09/07 13:52:23;;;;;;;7.87;2.27;;;;;;;30.09;34.07;97624.28;8318539;28;20223;-77
2022/09/07 13:56:37;;;;;;;7.17;2.10;;;;;;;30.93;32.91;97623.81;8318330;28;20556;-83
2022/09/07 14:00:52;;;;;;;8.03;2.07;;;;;;;31.29;32.34;97619.06;8318295;28;20234;-78
2022/09/07 14:04:56;;;;;;;5.20;1.90;;;;;;;30.79;33.03;97614.97;8316837;28;20259;-80
2022/09/07 14:09:02;;;;;;;5.23;2.00;;;;;;;30.85;32.07;97607.16;8317537;28;20239;-78
2022/09/07 14:13:10;;;;;;;5.87;1.93;;;;;;;30.68;32.49;97604.88;8318019;28;20244;-78
2022/09/07 14:17:15;;;;;;;5.13;1.70;;;;;;;29.99;33.32;97606.00;8318026;28;20542;-80
2022/09/07 14:21:19;;;;;;;7.43;1.80;;;;;;;29.32;33.93;97608.34;8317443;28;20240;-80
2022/09/07 14:25:22;;;;;;;6.57;1.80;;;;;;;29.37;34.47;97613.06;8317492;28;20276;-80
2022/09/07 14:29:29;;;;;;;4.37;1.70;;;;;;;30.14;32.92;97606.66;8317336;28;20513;-81
2022/09/07 14:33:32;;;;;;;8.67;1.90;;;;;;;30.55;32.19;97599.53;8317534;28;20230;-82
2022/09/07 14:37:36;;;;;;;7.17;1.80;;;;;;;30.64;31.83;97595.66;8317644;28;20245;-84
2022/09/07 14:41:40;;;;;;;6.33;1.60;;;;;;;30.60;32.27;97586.41;8317245;28;20228;-84
2022/09/07 14:45:45;;;;;;;4.77;1.70;;;;;;;30.69;31.35;97571.81;8317090;28;20556;-80
2022/09/07 14:49:50;;;;;;;6.00;1.30;;;;;;;30.66;30.70;97577.56;8316552;28;20238;-80
2022/09/07 14:53:55;;;;;;;6.83;1.50;;;;;;;30.51;30.83;97568.94;8316760;28;20271;-80
2022/09/07 14:58:21;;;;;;;4.67;1.27;;;;;;;30.51;30.57;97568.94;8316502;28;20233;-80
2022/09/07 15:02:33;;;;;;;3.33;1.27;;;;;;;30.54;30.15;97565.81;8316392;28;20297;-81
2022/09/07 15:06:37;;;;;;;4.83;1.50;;;;;;;30.22;30.70;97562.91;8316331;28;20254;-81
2022/09/07 15:11:02;;;;;;;4.17;1.60;;;;;;;30.12;31.00;97562.47;8315972;28;20503;-81
2022/09/07 15:15:26;;;;;;;5.30;1.50;;;;;;;30.08;30.66;97558.56;8316326;28;20291;-80
2022/09/07 15:19:34;;;;;;;3.77;1.33;;;;;;;30.32;30.44;97551.84;8316079;28;20250;-80
2022/09/07 15:23:36;;;;;;;3.23;1.20;;;;;;;30.33;29.99;97548.16;8315957;28;20235;-80
2022/09/07 15:27:45;;;;;;;4.60;1.30;;;;;;;30.23;29.45;97535.16;8315924;28;20228;-80
2022/09/07 15:31:50;;;;;;;6.00;1.60;;;;;;;30.23;30.38;97543.19;8315642;28;20227;-83
2022/09/07 15:36:10;;;;;;;3.67;0.83;;;;;;;30.18;30.31;97548.31;8316249;28;20258;-86
2022/09/07 15:40:17;;;;;;;6.27;1.43;;;;;;;29.92;29.96;97530.41;8316032;28;20232;-84
2022/09/07 15:44:22;;;;;;;3.30;1.07;;;;;;;29.64;30.09;97536.66;8315934;28;20511;-84
2022/09/07 15:48:29;;;;;;;7.57;1.07;;;;;;;29.66;30.35;97539.94;8316154;28;20233;-84
2022/09/07 15:52:33;;;;;;;2.50;1.00;;;;;;;29.49;31.04;97538.66;8315668;28;20227;-83
2022/09/07 15:56:36;;;;;;;3.60;1.60;;;;;;;29.26;30.57;97537.09;8315123;28;20505;-85
2022/09/07 16:00:40;;;;;;;4.00;1.30;;;;;;;29.17;31.09;97538.31;8315639;28;20250;-84
2022/09/07 16:04:42;;;;;;;3.57;1.37;;;;;;;29.11;30.85;97537.22;8315633;28;20293;-85
2022/09/07 16:08:47;;;;;;;3.70;1.40;;;;;;;28.91;30.69;97528.28;8315989;28;20239;-89
2022/09/07 16:12:53;;;;;;;6.53;1.50;;;;;;;28.86;31.10;97526.19;8314851;28;20240;-84
2022/09/07 16:17:11;;;;;;;5.77;1.23;;;;;;;28.63;31.01;97524.59;8315413;28;20257;-85
2022/09/07 16:21:33;;;;;;;4.20;1.33;;;;;;;28.43;31.08;97519.09;8314989;28;20300;-83
2022/09/07 16:25:38;;;;;;;5.60;1.43;;;;;;;28.28;31.48;97519.19;8315150;28;20229;-85
2022/09/07 16:29:41;;;;;;;9.83;1.40;;;;;;;28.23;31.56;97516.25;8321366;28;20230;-84
2022/09/07 16:33:44;;;;;;;2.30;1.13;;;;;;;28.18;31.55;97518.69;8321488;28;20400;-84
2022/09/07 16:37:47;;;;;;;3.90;1.20;;;;;;;28.14;31.69;97520.09;8321572;28;20224;-82
2022/09/07 16:42:11;;;;;;;4.33;1.37;;;;;;;27.96;31.76;97519.69;8321000;28;20228;-83
2022/09/07 16:46:16;;;;;;;5.20;1.30;;;;;;;27.90;32.61;97520.47;8321318;28;20252;-83
2022/09/07 16:50:19;;;;;;;2.53;1.27;;;;;;;27.88;33.16;97507.31;8320705;28;20342;-83
2022/09/07 16:54:21;;;;;;;4.57;1.20;;;;;;;27.86;33.63;97510.16;8320645;28;20239;-82
2022/09/07 16:58:26;;;;;;;4.20;1.30;;;;;;;27.77;34.49;97497.97;8320533;28;20236;-90
2022/09/07 17:02:44;;;;;;;7.73;1.70;;;;;;;27.66;34.88;97504.63;8320050;28;20232;-82
2022/09/07 17:06:47;;;;;;;4.13;1.23;;;;;;;27.60;34.86;97502.72;8319415;28;20232;-77
2022/09/07 17:10:50;;;;;;;4.03;1.23;;;;;;;27.51;35.37;97503.81;8319674;28;20232;-84
2022/09/07 17:14:54;;;;;;;4.57;1.27;;;;;;;27.43;35.43;97498.63;8321413;28;20239;-82
2022/09/07 17:18:58;;;;;;;4.37;1.60;;;;;;;27.36;36.59;97503.03;8320203;28;20260;-82
2022/09/07 17:23:21;;;;;;;6.27;1.50;;;;;;;27.29;37.21;97497.66;8319283;28;20357;-82
2022/09/07 17:27:24;;;;;;;5.60;1.50;;;;;;;27.16;36.90;97502.75;8319382;28;20232;-82
2022/09/07 17:31:32;;;;;;;6.77;1.60;;;;;;;27.09;37.61;97492.88;8319326;28;20247;-80
2022/09/07 17:35:54;;;;;;;4.27;1.30;;;;;;;27.00;38.67;97496.63;8318529;28;20279;-82
2022/09/07 17:39:58;;;;;;;6.33;1.73;;;;;;;26.91;38.57;97492.41;8317451;28;20236;-81
2022/09/07 17:44:01;;;;;;;4.73;1.70;;;;;;;26.87;38.71;97489.31;8318662;28;20251;-81
2022/09/07 17:48:05;;;;;;;7.40;1.60;;;;;;;26.75;38.96;97488.13;8319105;28;20236;-82
2022/09/07 17:52:07;;;;;;;5.00;1.33;;;;;;;26.68;40.45;97497.81;8318968;28;20247;-80
2022/09/07 17:56:12;;;;;;;5.13;1.60;;;;;;;26.63;41.38;97511.63;8319057;28;20423;-80
2022/09/07 18:00:15;;;;;;;4.33;1.33;;;;;;;26.56;40.73;97521.31;8318846;28;20236;-81
2022/09/07 18:04:20;;;;;;;6.43;1.70;;;;;;;26.44;39.72;97514.75;8318489;28;20292;-83
2022/09/07 18:08:23;;;;;;;9.30;1.77;;;;;;;26.36;39.82;97522.81;8317827;28;20250;-82
2022/09/07 18:12:26;;;;;;;2.50;1.47;;;;;;;26.27;41.10;97522.03;8318299;28;20240;-82
2022/09/07 18:16:31;;;;;;;5.00;1.80;;;;;;;26.25;41.15;97529.34;8317847;28;20228;-80
2022/09/07 18:20:36;;;;;;;7.67;1.70;;;;;;;26.18;41.12;97537.22;8317802;28;20235;-78
2022/09/07 18:24:38;;;;;;;3.93;1.57;;;;;;;26.12;41.52;97537.91;8317601;28;20529;-85
2022/09/07 18:28:41;;;;;;;3.97;1.60;;;;;;;26.06;41.19;97535.97;8317641;28;20290;-81
2022/09/07 18:33:04;;;;;;;4.73;1.83;;;;;;;25.94;41.92;97541.69;8316853;28;20577;-90
2022/09/07 18:37:10;;;;;;;7.33;1.83;;;;;;;25.87;42.07;97531.91;8317457;28;20244;-81
2022/09/07 18:41:14;;;;;;;2.97;2.00;;;;;;;25.79;41.78;97538.09;8317263;28;20305;-82
2022/09/07 18:45:18;;;;;;;6.93;2.20;;;;;;;25.71;42.06;97533.66;8317030;28;20233;-81
2022/09/07 18:49:36;;;;;;;6.00;2.30;;;;;;;25.62;42.29;97537.34;8316547;28;20230;-80
2022/09/07 18:53:41;;;;;;;6.03;1.90;;;;;;;25.60;42.09;97544.66;8316665;28;20238;-80
2022/09/07 18:57:43;;;;;;;11.47;2.53;;;;;;;25.40;42.59;97560.19;8316936;28;20296;-81
2022/09/07 19:01:46;;;;;;;8.43;2.80;;;;;;;25.39;42.91;97557.69;8316461;28;20236;-79
2022/09/07 19:05:49;;;;;;;8.00;2.37;;;;;;;25.37;42.94;97544.59;8315906;28;20229;-80
2022/09/07 19:09:55;;;;;;;7.90;2.50;;;;;;;25.30;43.41;97551.59;8316459;28;20434;-79
2022/09/07 19:13:59;;;;;;;5.70;2.10;;;;;;;25.24;43.60;97550.44;8316571;28;20237;-80
2022/09/07 19:18:04;;;;;;;5.03;2.23;;;;;;;25.17;43.52;97555.59;8316117;28;20239;-78
2022/09/07 19:22:07;;;;;;;11.53;2.63;;;;;;;25.06;43.68;97547.19;8316311;28;20426;-78